Time;durP1;ratioP1;P1;durP2;ratioP2;P2;SDS_P1;SDS_P2;PMS_P1;PMS_P2;Temp;Humidity;BMP_temperature;BMP_pressure;BME280_temperature;BME280_humidity;BME280_pressure;Samples;Min_cycle;Max_cycle;Signal;HPM_P1;HPM_P2
2022/03/31 00:00:53;;;;;;;5.80;4.07;;;9.60;99.90;;;;;;5076370;28;20343;-66
2022/03/31 00:03:20;;;;;;;5.25;3.78;;;9.50;99.90;;;;;;5075576;28;20320;-66
2022/03/31 00:05:48;;;;;;;6.63;3.92;;;9.40;99.90;;;;;;5077742;28;20036;-66
2022/03/31 00:08:16;;;;;;;5.07;3.67;;;9.40;99.90;;;;;;5080093;28;20408;-66
2022/03/31 00:10:45;;;;;;;4.82;3.83;;;9.50;99.90;;;;;;5079972;28;20048;-66
2022/03/31 00:13:19;;;;;;;4.10;3.70;;;9.60;99.90;;;;;;5079135;28;20336;-65
2022/03/31 00:15:46;;;;;;;5.05;4.10;;;9.60;99.90;;;;;;5079952;28;20040;-67
2022/03/31 00:18:16;;;;;;;6.28;4.10;;;9.50;99.90;;;;;;5079737;28;20032;-66
2022/03/31 00:20:42;;;;;;;5.03;4.32;;;9.50;99.90;;;;;;5079113;28;20070;-67
2022/03/31 00:23:08;;;;;;;6.10;4.30;;;9.50;99.90;;;;;;5079009;28;20057;-66
2022/03/31 00:25:34;;;;;;;7.03;4.32;;;9.60;99.90;;;;;;5078873;28;20270;-66
2022/03/31 00:28:03;;;;;;;4.63;3.95;;;9.50;99.90;;;;;;5079735;28;20029;-65
2022/03/31 00:30:30;;;;;;;6.50;4.65;;;9.50;99.90;;;;;;5079595;28;20052;-65
2022/03/31 00:32:57;;;;;;;5.95;4.65;;;9.50;99.90;;;;;;5079530;28;20051;-65
2022/03/31 00:35:23;;;;;;;4.95;4.45;;;9.40;99.90;;;;;;5079561;28;20029;-65
2022/03/31 00:37:49;;;;;;;5.63;4.32;;;9.30;99.90;;;;;;5079437;28;20028;-66
2022/03/31 00:40:18;;;;;;;5.25;4.60;;;9.20;99.90;;;;;;5079296;28;20051;-65
2022/03/31 00:42:53;;;;;;;7.45;4.80;;;9.20;99.90;;;;;;5078693;28;20357;-65
2022/03/31 00:45:23;;;;;;;6.55;4.82;;;9.20;99.90;;;;;;5079335;28;20028;-66
2022/03/31 00:47:50;;;;;;;6.32;4.90;;;9.20;99.90;;;;;;5079242;28;20307;-65
2022/03/31 00:50:16;;;;;;;4.90;4.40;;;9.20;99.90;;;;;;5078595;28;20032;-66
2022/03/31 00:52:43;;;;;;;6.05;4.63;;;9.10;99.90;;;;;;5079404;28;20338;-65
2022/03/31 00:55:10;;;;;;;6.35;4.30;;;9.10;99.90;;;;;;5078369;28;20037;-65
2022/03/31 00:57:37;;;;;;;7.82;4.75;;;9.10;99.90;;;;;;5079033;28;20333;-65
2022/03/31 01:00:09;;;;;;;8.00;4.65;;;9.10;99.90;;;;;;5079080;28;20031;-65
2022/03/31 01:02:36;;;;;;;3.30;3.00;;;9.20;99.90;;;;;;5079067;28;20041;-65
2022/03/31 01:05:04;;;;;;;5.35;4.80;;;9.20;99.90;;;;;;5078385;28;20277;-66
2022/03/31 01:07:33;;;;;;;6.15;5.20;;;9.20;99.90;;;;;;5078171;28;20056;-66
2022/03/31 01:09:59;;;;;;;4.95;4.45;;;9.30;99.90;;;;;;5078846;28;20089;-65
2022/03/31 01:12:24;;;;;;;6.43;5.15;;;9.40;99.90;;;;;;5078110;28;20040;-65
2022/03/31 01:15:07;;;;;;;6.55;5.25;;;9.30;99.90;;;;;;5078842;28;20025;-66
2022/03/31 01:17:34;;;;;;;;;;;9.40;99.90;;;;;;5078307;28;20105;-66
2022/03/31 01:20:00;;;;;;;8.60;5.10;;;9.30;99.90;;;;;;5079030;28;19908;-65
2022/03/31 01:22:29;;;;;;;7.78;4.80;;;9.30;99.90;;;;;;5078656;28;20308;-65
2022/03/31 01:24:55;;;;;;;6.70;5.10;;;9.30;99.90;;;;;;5077765;28;20404;-65
2022/03/31 01:27:20;;;;;;;5.65;4.38;;;9.20;99.90;;;;;;5078515;28;20056;-66
2022/03/31 01:29:46;;;;;;;5.70;4.70;;;9.10;99.90;;;;;;5078504;28;20443;-65
2022/03/31 01:32:12;;;;;;;5.45;4.43;;;9.10;99.90;;;;;;5077752;28;20032;-65
2022/03/31 01:34:38;;;;;;;5.28;4.60;;;9.10;99.90;;;;;;5078354;28;20032;-65
2022/03/31 01:37:04;;;;;;;4.70;4.25;;;9.30;99.90;;;;;;5078229;28;20033;-66
2022/03/31 01:39:30;;;;;;;4.63;4.13;;;9.20;99.90;;;;;;5078268;28;20364;-66
2022/03/31 01:41:56;;;;;;;5.32;4.32;;;9.10;99.90;;;;;;5078462;28;20056;-66
2022/03/31 01:44:22;;;;;;;5.32;4.60;;;9.10;99.90;;;;;;5078233;28;20097;-66
2022/03/31 01:46:48;;;;;;;4.93;4.45;;;9.00;99.90;;;;;;5078130;28;20111;-67
2022/03/31 01:49:14;;;;;;;7.18;4.57;;;9.00;99.90;;;;;;5078096;28;20027;-66
2022/03/31 01:51:40;;;;;;;5.07;4.57;;;9.00;99.90;;;;;;5078361;28;20270;-66
2022/03/31 01:54:06;;;;;;;7.63;4.95;;;9.00;99.90;;;;;;5078023;28;20036;-66
2022/03/31 01:56:33;;;;;;;5.45;4.95;;;9.00;99.90;;;;;;5077113;28;20086;-66
2022/03/31 01:58:59;;;;;;;6.25;4.95;;;9.00;99.90;;;;;;5077840;28;20021;-66
2022/03/31 02:01:25;;;;;;;5.75;5.18;;;8.90;99.90;;;;;;5077815;28;20047;-66
2022/03/31 02:03:50;;;;;;;7.43;5.43;;;8.90;99.90;;;;;;5077861;28;20300;-66
2022/03/31 02:06:16;;;;;;;7.30;5.10;;;9.00;99.90;;;;;;5077770;28;20025;-66
2022/03/31 02:08:42;;;;;;;6.63;4.88;;;8.90;99.90;;;;;;5077758;28;20033;-66
2022/03/31 02:11:08;;;;;;;7.00;4.88;;;8.90;99.90;;;;;;5076944;28;20028;-67
2022/03/31 02:13:34;;;;;;;5.60;3.95;;;8.90;99.90;;;;;;5077635;28;20409;-66
2022/03/31 02:16:00;;;;;;;3.80;3.42;;;8.90;99.90;;;;;;5077554;28;20035;-66
2022/03/31 02:18:25;;;;;;;4.30;3.60;;;8.80;99.90;;;;;;5077502;28;20032;-66
2022/03/31 02:20:51;;;;;;;5.25;3.63;;;8.70;99.90;;;;;;5077520;28;20154;-66
2022/03/31 02:23:18;;;;;;;7.65;3.80;;;8.60;99.90;;;;;;5077483;28;20032;-66
2022/03/31 02:25:43;;;;;;;7.93;3.78;;;8.50;99.90;;;;;;5076866;28;20108;-66
2022/03/31 02:28:10;;;;;;;7.45;3.92;;;8.50;99.90;;;;;;5076635;28;20124;-66
2022/03/31 02:30:37;;;;;;;4.53;3.72;;;8.30;99.90;;;;;;5077357;28;20036;-67
2022/03/31 02:33:04;;;;;;;4.82;3.92;;;8.30;99.90;;;;;;5077380;28;20116;-66
2022/03/31 02:35:30;;;;;;;8.02;4.78;;;8.10;99.90;;;;;;5077356;28;20056;-66
2022/03/31 02:37:57;;;;;;;7.28;4.60;;;8.00;99.90;;;;;;5077168;28;20047;-65
2022/03/31 02:40:23;;;;;;;6.53;4.50;;;8.00;99.90;;;;;;5077034;28;20047;-66
2022/03/31 02:42:49;;;;;;;6.20;4.53;;;7.90;99.90;;;;;;5077231;28;20020;-66
2022/03/31 02:45:15;;;;;;;6.63;4.60;;;7.80;99.90;;;;;;5077806;28;20032;-65
2022/03/31 02:47:44;;;;;;;7.20;5.18;;;7.90;99.90;;;;;;5077143;28;20093;-66
2022/03/31 02:50:10;;;;;;;7.82;4.80;;;7.80;99.90;;;;;;5076703;28;20269;-66
2022/03/31 02:55:28;;;;;;;6.55;4.05;;;7.70;99.90;;;;;;5077280;28;20391;-65
2022/03/31 02:58:01;;;;;;;4.03;3.63;;;7.60;99.90;;;;;;5076982;28;20033;-66
2022/03/31 03:00:30;;;;;;;3.50;3.20;;;7.60;99.90;;;;;;5076331;28;20036;-65
2022/03/31 03:02:57;;;;;;;2.97;2.67;;;7.50;99.90;;;;;;5076910;28;20025;-65
2022/03/31 03:05:23;;;;;;;2.63;2.38;;;7.40;99.90;;;;;;5076063;28;20173;-66
2022/03/31 03:07:49;;;;;;;2.20;2.00;;;7.30;99.90;;;;;;5076045;28;20086;-66
2022/03/31 03:10:15;;;;;;;2.10;1.80;;;7.00;99.90;;;;;;5077072;28;20442;-65
2022/03/31 03:12:41;;;;;;;3.78;2.00;;;6.90;99.90;;;;;;5076831;28;20115;-65
2022/03/31 03:15:09;;;;;;;1.60;1.42;;;6.80;99.90;;;;;;5077028;28;20372;-66
2022/03/31 03:17:35;;;;;;;1.75;1.40;;;6.70;99.90;;;;;;5076773;28;20036;-65
2022/03/31 03:20:02;;;;;;;1.50;1.40;;;6.60;99.90;;;;;;5076754;28;20396;-65
2022/03/31 03:22:28;;;;;;;2.53;1.77;;;6.50;99.90;;;;;;5076754;28;20452;-66
2022/03/31 03:24:54;;;;;;;2.05;1.40;;;6.40;99.90;;;;;;5077163;28;20124;-65
2022/03/31 03:27:19;;;;;;;1.65;1.55;;;6.30;99.90;;;;;;5076036;28;20025;-65
2022/03/31 03:29:46;;;;;;;1.65;1.55;;;6.30;99.90;;;;;;5042565;28;20033;-66
2022/03/31 03:32:15;;;;;;;1.75;1.65;;;6.10;99.90;;;;;;5075873;28;20384;-65
2022/03/31 03:34:41;;;;;;;1.65;1.50;;;6.10;99.90;;;;;;5076517;28;20028;-64
2022/03/31 03:37:07;;;;;;;2.00;1.60;;;6.10;99.90;;;;;;5076790;28;20338;-65
2022/03/31 03:39:37;;;;;;;1.90;1.80;;;6.10;99.90;;;;;;5076410;28;20312;-64
2022/03/31 03:42:03;;;;;;;1.70;1.40;;;6.10;99.90;;;;;;5079491;28;20070;-64
2022/03/31 03:44:29;;;;;;;1.58;1.48;;;5.90;99.90;;;;;;5080412;28;20037;-64
2022/03/31 03:46:55;;;;;;;1.70;1.60;;;5.90;99.90;;;;;;5080635;28;20411;-65
2022/03/31 03:49:21;;;;;;;1.42;1.33;;;5.80;99.90;;;;;;5080338;28;20049;-65
2022/03/31 03:51:47;;;;;;;1.40;1.30;;;5.70;99.90;;;;;;5080301;28;20025;-65
2022/03/31 03:54:13;;;;;;;1.38;1.27;;;5.60;99.90;;;;;;5080347;28;20047;-65
2022/03/31 03:56:39;;;;;;;1.50;1.40;;;5.50;99.90;;;;;;5080098;28;20024;-65
2022/03/31 03:59:08;;;;;;;1.40;1.30;;;5.50;99.90;;;;;;5079368;28;20035;-65
2022/03/31 04:01:34;;;;;;;3.17;1.42;;;5.50;99.90;;;;;;5080063;28;20040;-65
2022/03/31 04:03:59;;;;;;;1.30;1.20;;;5.40;99.90;;;;;;5080153;28;20036;-65
2022/03/31 04:06:25;;;;;;;1.45;1.15;;;5.40;99.90;;;;;;5080151;28;20226;-66
2022/03/31 04:08:51;;;;;;;1.30;1.10;;;5.20;99.90;;;;;;5080029;28;20029;-67
2022/03/31 04:11:17;;;;;;;1.20;1.10;;;5.00;99.90;;;;;;5080051;28;20048;-67
2022/03/31 04:13:42;;;;;;;1.02;1.00;;;4.90;99.90;;;;;;5079255;28;20157;-67
2022/03/31 04:16:08;;;;;;;1.88;1.13;;;4.80;99.90;;;;;;5080089;28;20032;-68
2022/03/31 04:18:34;;;;;;;1.15;0.90;;;4.80;99.90;;;;;;5080288;28;20079;-67
2022/03/31 04:21:02;;;;;;;1.27;1.10;;;4.90;99.90;;;;;;5079797;28;20296;-67
2022/03/31 04:23:29;;;;;;;1.40;1.30;;;4.80;99.90;;;;;;5079071;28;20032;-68
2022/03/31 04:25:54;;;;;;;1.33;1.23;;;4.70;99.90;;;;;;5079119;28;20063;-67
2022/03/31 04:28:21;;;;;;;1.55;1.45;;;4.80;99.90;;;;;;5079724;28;20056;-66
2022/03/31 04:30:46;;;;;;;1.40;1.17;;;4.80;99.90;;;;;;5079653;28;20395;-68
2022/03/31 04:33:12;;;;;;;1.48;1.38;;;4.70;99.90;;;;;;5079630;28;20059;-68
2022/03/31 04:35:41;;;;;;;1.60;1.50;;;4.80;99.90;;;;;;5079520;28;20318;-69
2022/03/31 04:38:07;;;;;;;1.48;1.38;;;4.70;99.90;;;;;;5079370;28;20032;-68
2022/03/31 04:40:34;;;;;;;1.60;1.50;;;4.50;99.90;;;;;;5079129;28;20105;-68
2022/03/31 04:43:00;;;;;;;2.17;1.30;;;4.50;99.90;;;;;;5079492;28;20317;-67
2022/03/31 04:45:26;;;;;;;1.60;1.50;;;4.50;99.90;;;;;;5079349;28;20130;-68
2022/03/31 04:47:51;;;;;;;4.03;1.77;;;4.50;99.90;;;;;;5078525;28;20029;-68
2022/03/31 04:50:17;;;;;;;1.98;1.83;;;4.40;99.90;;;;;;5079231;28;20040;-67
2022/03/31 04:52:43;;;;;;;1.70;1.60;;;4.60;99.90;;;;;;5078011;28;20269;-67
2022/03/31 04:55:10;;;;;;;2.28;2.05;;;4.50;99.90;;;;;;5078867;28;20059;-69
2022/03/31 04:57:36;;;;;;;2.50;2.30;;;4.50;99.90;;;;;;5078953;28;20044;-67
2022/03/31 05:00:05;;;;;;;2.30;2.10;;;4.50;99.90;;;;;;5079569;28;20082;-67
2022/03/31 05:02:31;;;;;;;3.17;2.60;;;4.50;99.90;;;;;;5078414;28;20399;-69
2022/03/31 05:04:56;;;;;;;2.95;2.65;;;4.50;99.90;;;;;;5061637;28;20064;-68
2022/03/31 05:07:22;;;;;;;2.60;2.40;;;4.50;99.90;;;;;;5079535;28;20041;-68
2022/03/31 05:09:48;;;;;;;2.90;2.60;;;4.50;99.90;;;;;;5078654;28;20306;-68
2022/03/31 05:12:14;;;;;;;3.00;2.80;;;4.50;99.90;;;;;;5078815;28;20083;-69
2022/03/31 05:14:40;;;;;;;2.75;2.55;;;4.50;99.90;;;;;;5078407;28;20032;-69
2022/03/31 05:17:06;;;;;;;2.92;2.72;;;4.50;99.90;;;;;;5061511;28;20115;-69
2022/03/31 05:19:33;;;;;;;3.05;2.75;;;4.40;99.90;;;;;;5077892;28;20025;-68
2022/03/31 05:21:59;;;;;;;3.53;2.70;;;4.50;99.90;;;;;;5078605;28;20385;-67
2022/03/31 05:24:25;;;;;;;2.95;2.72;;;4.50;99.90;;;;;;5078561;28;20067;-68
2022/03/31 05:26:52;;;;;;;3.13;2.83;;;4.50;99.90;;;;;;5078415;28;20067;-68
2022/03/31 05:29:22;;;;;;;2.88;2.67;;;4.40;99.90;;;;;;5077769;28;20115;-68
2022/03/31 05:31:48;;;;;;;4.63;3.10;;;4.30;99.90;;;;;;5078442;28;20070;-67
2022/03/31 05:34:14;;;;;;;4.10;3.25;;;4.40;99.90;;;;;;5077706;28;20075;-67
2022/03/31 05:36:40;;;;;;;3.33;2.83;;;4.60;99.90;;;;;;5077498;28;20341;-69
2022/03/31 05:39:06;;;;;;;4.75;3.20;;;4.60;99.90;;;;;;5078111;28;20041;-67
2022/03/31 05:41:32;;;;;;;4.13;3.08;;;4.60;99.90;;;;;;5078210;28;20350;-67
2022/03/31 05:43:59;;;;;;;3.28;3.03;;;4.70;99.90;;;;;;5078062;28;20112;-68
2022/03/31 05:46:25;;;;;;;3.70;3.40;;;4.60;99.90;;;;;;5078052;28;20296;-68
2022/03/31 05:48:52;;;;;;;3.63;3.33;;;4.60;99.90;;;;;;5077312;28;20020;-67
2022/03/31 05:51:19;;;;;;;3.63;3.33;;;4.70;99.90;;;;;;5077213;28;20404;-67
2022/03/31 05:53:45;;;;;;;5.07;3.33;;;4.70;99.90;;;;;;5077054;28;20029;-68
2022/03/31 05:56:11;;;;;;;3.33;3.03;;;4.70;99.90;;;;;;5060488;28;20124;-69
2022/03/31 05:58:37;;;;;;;3.83;3.28;;;4.70;99.90;;;;;;5077740;28;20036;-68
2022/03/31 06:01:04;;;;;;;3.53;2.92;;;4.60;99.90;;;;;;5077224;28;20111;-68
2022/03/31 06:03:30;;;;;;;3.92;3.13;;;4.80;99.90;;;;;;5077288;28;20028;-69
2022/03/31 06:05:56;;;;;;;7.65;3.55;;;4.90;99.90;;;;;;5078140;28;20025;-68
2022/03/31 06:08:23;;;;;;;4.00;3.65;;;4.90;99.90;;;;;;5076838;28;20025;-70
2022/03/31 06:10:49;;;;;;;3.60;3.30;;;4.90;99.90;;;;;;5076992;28;20021;-69
2022/03/31 06:13:15;;;;;;;3.40;3.10;;;5.00;99.90;;;;;;5077652;28;20082;-70
2022/03/31 06:15:41;;;;;;;4.43;3.50;;;5.00;99.90;;;;;;5076649;28;20086;-68
2022/03/31 06:18:07;;;;;;;4.40;3.42;;;5.00;99.90;;;;;;5076694;28;20040;-68
2022/03/31 06:20:36;;;;;;;3.95;3.22;;;5.10;99.90;;;;;;5076695;28;20025;-67
2022/03/31 06:23:03;;;;;;;4.32;3.92;;;5.10;99.90;;;;;;5077484;28;20081;-65
2022/03/31 06:25:29;;;;;;;5.57;3.75;;;6.40;99.90;;;;;;5077431;28;20050;-67
2022/03/31 06:27:56;;;;;;;4.07;3.65;;;6.00;99.90;;;;;;5077283;28;20131;-68
2022/03/31 06:30:22;;;;;;;4.00;3.60;;;5.80;99.90;;;;;;5077241;28;20328;-67
2022/03/31 06:32:49;;;;;;;3.97;3.58;;;5.60;99.90;;;;;;5076481;28;20051;-68
2022/03/31 06:35:15;;;;;;;4.35;3.95;;;5.40;99.90;;;;;;5077729;28;20173;-69
2022/03/31 06:37:45;;;;;;;4.15;3.47;;;5.40;99.90;;;;;;5077087;28;20025;-69
2022/03/31 06:40:13;;;;;;;4.10;3.70;;;5.30;99.90;;;;;;5077211;28;20174;-68
2022/03/31 06:42:40;;;;;;;4.20;3.80;;;5.30;99.90;;;;;;5076361;28;20029;-68
2022/03/31 06:45:08;;;;;;;4.15;3.60;;;5.30;99.90;;;;;;5076259;28;20039;-68
2022/03/31 06:47:35;;;;;;;4.13;3.70;;;5.30;99.90;;;;;;5077052;28;20032;-69
2022/03/31 06:50:02;;;;;;;3.80;3.50;;;5.30;99.90;;;;;;5076903;28;20032;-68
2022/03/31 06:52:27;;;;;;;5.40;4.28;;;5.40;99.90;;;;;;5076904;28;20047;-68
2022/03/31 06:54:53;;;;;;;4.60;4.10;;;5.50;99.90;;;;;;5059632;28;20392;-69
2022/03/31 06:57:19;;;;;;;5.82;4.80;;;5.50;99.90;;;;;;5059677;28;20090;-69
2022/03/31 06:59:45;;;;;;;4.53;3.85;;;5.60;99.90;;;;;;5076950;28;20063;-68
2022/03/31 07:02:10;;;;;;;4.82;3.80;;;5.70;99.90;;;;;;5076677;28;20339;-69
2022/03/31 07:04:36;;;;;;;4.50;4.10;;;5.60;99.90;;;;;;5076909;28;20029;-69
2022/03/31 07:07:02;;;;;;;4.75;4.30;;;5.60;99.90;;;;;;5076909;28;20304;-69
2022/03/31 07:09:28;;;;;;;4.85;4.40;;;5.60;99.90;;;;;;5076032;28;20094;-68
2022/03/31 07:11:55;;;;;;;6.38;4.40;;;5.70;99.90;;;;;;5059489;28;20020;-69
2022/03/31 07:14:21;;;;;;;4.75;4.35;;;5.70;99.90;;;;;;5076560;28;20327;-67
2022/03/31 07:16:46;;;;;;;4.72;4.18;;;5.90;99.90;;;;;;5075423;28;20085;-68
2022/03/31 07:19:12;;;;;;;4.50;4.00;;;6.00;99.90;;;;;;5059425;28;20025;-65
2022/03/31 07:21:38;;;;;;;3.90;3.60;;;6.00;99.90;;;;;;5076668;28;20079;-68
2022/03/31 07:24:04;;;;;;;3.58;3.28;;;5.80;99.90;;;;;;5076684;28;20305;-67
2022/03/31 07:26:31;;;;;;;4.57;3.35;;;5.90;99.90;;;;;;5042615;28;20320;-68
2022/03/31 07:28:56;;;;;;;3.65;3.35;;;6.00;99.90;;;;;;5075806;28;20036;-68
2022/03/31 07:31:26;;;;;;;3.50;3.20;;;6.10;99.90;;;;;;5075888;28;20055;-68
2022/03/31 07:33:52;;;;;;;4.22;3.03;;;6.30;99.90;;;;;;5076618;28;20037;-68
2022/03/31 07:36:18;;;;;;;3.17;2.88;;;6.40;99.90;;;;;;5076487;28;20103;-68
2022/03/31 07:38:45;;;;;;;3.42;2.65;;;6.50;99.90;;;;;;5058922;28;20309;-68
2022/03/31 07:41:12;;;;;;;2.90;2.50;;;6.60;99.90;;;;;;5076456;28;20040;-68
2022/03/31 07:43:39;;;;;;;3.45;3.00;;;6.70;99.90;;;;;;5075787;28;20039;-67
2022/03/31 07:46:05;;;;;;;2.92;2.63;;;6.80;99.90;;;;;;5076463;28;20028;-67
2022/03/31 07:48:31;;;;;;;4.18;2.50;;;6.70;99.90;;;;;;5076493;28;20039;-70
2022/03/31 07:50:59;;;;;;;3.10;2.33;;;6.70;99.90;;;;;;5076459;28;20037;-68
2022/03/31 07:53:26;;;;;;;2.60;2.38;;;6.70;99.90;;;;;;5076404;28;20270;-68
2022/03/31 07:55:54;;;;;;;2.22;2.03;;;6.80;99.90;;;;;;5076440;28;20371;-69
2022/03/31 07:58:21;;;;;;;3.45;2.30;;;6.70;99.90;;;;;;5075656;28;20056;-67
2022/03/31 08:00:50;;;;;;;2.22;2.00;;;6.80;99.90;;;;;;5076367;28;20021;-67
2022/03/31 08:03:18;;;;;;;2.70;2.00;;;6.90;99.90;;;;;;5075635;28;20041;-68
2022/03/31 08:05:45;;;;;;;4.82;2.30;;;6.80;99.90;;;;;;5076143;28;20052;-68
2022/03/31 08:08:11;;;;;;;4.00;2.42;;;6.80;99.90;;;;;;5076279;28;20396;-68
2022/03/31 08:10:37;;;;;;;2.97;2.13;;;6.80;99.90;;;;;;5076179;28;20107;-67
2022/03/31 08:13:03;;;;;;;3.40;2.17;;;6.70;99.90;;;;;;5076529;28;20045;-68
2022/03/31 08:15:29;;;;;;;3.28;2.28;;;6.70;99.90;;;;;;5075538;28;20105;-67
2022/03/31 08:17:55;;;;;;;3.10;2.15;;;6.90;99.90;;;;;;5076065;28;20041;-67
2022/03/31 08:20:21;;;;;;;3.60;2.72;;;6.90;99.90;;;;;;5076730;28;20297;-68
2022/03/31 08:22:47;;;;;;;3.45;2.17;;;6.90;99.90;;;;;;5076090;28;20029;-68
2022/03/31 08:25:15;;;;;;;2.38;2.10;;;6.70;99.90;;;;;;5076255;28;20064;-67
2022/03/31 08:27:41;;;;;;;2.92;2.50;;;6.70;99.90;;;;;;5078675;28;20119;-67
2022/03/31 08:30:11;;;;;;;3.35;2.50;;;6.70;99.90;;;;;;5078634;28;20115;-68
2022/03/31 08:32:39;;;;;;;4.20;3.00;;;6.70;99.90;;;;;;5079410;28;20060;-67
2022/03/31 08:35:07;;;;;;;2.75;2.40;;;6.70;99.90;;;;;;5063187;28;20303;-67
2022/03/31 08:37:33;;;;;;;5.28;2.95;;;6.70;99.90;;;;;;5079366;28;20040;-68
2022/03/31 08:39:59;;;;;;;4.38;2.20;;;6.90;99.90;;;;;;5078541;28;20309;-68
2022/03/31 08:42:25;;;;;;;3.50;2.95;;;6.70;99.90;;;;;;5079515;28;20024;-67
2022/03/31 08:44:52;;;;;;;3.45;2.50;;;6.70;99.90;;;;;;5079352;28;20038;-69
2022/03/31 08:47:19;;;;;;;3.67;2.70;;;6.70;99.90;;;;;;5078391;28;20036;-68
2022/03/31 08:49:46;;;;;;;3.25;2.80;;;6.80;99.90;;;;;;5079538;28;20028;-69
2022/03/31 08:52:12;;;;;;;3.30;2.42;;;6.80;99.90;;;;;;5079114;28;20103;-67
2022/03/31 08:54:40;;;;;;;2.65;2.45;;;6.90;99.90;;;;;;5079296;28;20060;-67
2022/03/31 08:57:07;;;;;;;2.97;2.30;;;7.00;99.90;;;;;;5078071;28;20079;-67
2022/03/31 08:59:33;;;;;;;2.88;2.13;;;6.90;99.90;;;;;;5079115;28;20064;-66
2022/03/31 09:01:59;;;;;;;2.70;2.45;;;7.00;99.90;;;;;;5079028;28;20033;-67
2022/03/31 09:04:25;;;;;;;4.13;2.70;;;7.10;99.90;;;;;;5079036;28;20032;-68
2022/03/31 09:07:07;;;;;;;3.03;2.63;;;7.30;99.90;;;;;;5078280;28;20339;-67
2022/03/31 09:09:46;;;;;;;4.20;2.80;;;7.60;99.90;;;;;;5078211;28;20025;-66
2022/03/31 09:12:12;;;;;;;5.13;3.83;;;7.90;99.90;;;;;;5061383;28;20119;-67
2022/03/31 09:14:38;;;;;;;3.15;2.53;;;7.90;99.90;;;;;;5061302;28;20464;-68
2022/03/31 09:17:19;;;;;;;2.28;2.08;;;8.10;99.90;;;;;;5077860;28;20292;-67
2022/03/31 09:19:45;;;;;;;2.67;2.20;;;8.20;99.90;;;;;;5077960;28;20115;-68
2022/03/31 09:22:11;;;;;;;3.05;2.75;;;8.30;99.90;;;;;;5077857;28;20046;-68
2022/03/31 09:24:37;;;;;;;3.42;3.13;;;8.50;99.90;;;;;;5078617;28;20428;-68
2022/03/31 09:27:04;;;;;;;3.08;2.78;;;8.60;99.90;;;;;;5078741;28;20100;-67
2022/03/31 09:29:32;;;;;;;2.42;2.22;;;8.60;99.90;;;;;;5077764;28;20029;-68
2022/03/31 09:32:11;;;;;;;2.88;2.60;;;8.50;99.90;;;;;;5077716;28;20065;-68
2022/03/31 09:34:42;;;;;;;3.22;2.10;;;8.30;99.90;;;;;;5078403;28;20028;-67
2022/03/31 09:37:09;;;;;;;5.13;4.10;;;8.30;99.90;;;;;;5078245;28;20028;-67
2022/03/31 09:39:35;;;;;;;4.90;3.85;;;8.50;99.90;;;;;;5077938;28;20307;-67
2022/03/31 09:42:00;;;;;;;2.90;2.53;;;8.70;99.90;;;;;;5078239;28;20028;-68
2022/03/31 09:44:26;;;;;;;3.00;2.67;;;8.50;99.90;;;;;;5078193;28;20149;-67
2022/03/31 09:46:53;;;;;;;2.95;2.15;;;8.50;99.90;;;;;;5060428;28;20043;-67
2022/03/31 09:49:20;;;;;;;2.20;2.00;;;8.20;99.90;;;;;;5078758;28;20032;-68
2022/03/31 09:52:01;;;;;;;4.93;3.13;;;7.90;99.90;;;;;;5078184;28;20388;-68
2022/03/31 09:54:29;;;;;;;4.05;3.25;;;7.80;99.90;;;;;;5077236;28;20028;-68
2022/03/31 09:56:57;;;;;;;4.70;2.78;;;8.10;99.90;;;;;;5077176;28;20043;-68
2022/03/31 09:59:32;;;;;;;5.97;3.80;;;8.40;99.90;;;;;;5061408;28;20078;-67
2022/03/31 10:01:59;;;;;;;3.25;2.95;;;8.70;99.90;;;;;;5077795;28;20033;-67
2022/03/31 10:04:26;;;;;;;2.92;2.63;;;9.00;99.90;;;;;;5076941;28;20032;-67
2022/03/31 10:06:52;;;;;;;3.00;2.65;;;9.40;99.90;;;;;;5077592;28;20039;-67
2022/03/31 10:09:19;;;;;;;6.63;4.00;;;9.70;99.90;;;;;;5077580;28;20372;-67
2022/03/31 10:11:59;;;;;;;3.22;2.38;;;10.00;99.90;;;;;;5060147;28;20048;-66
2022/03/31 10:14:25;;;;;;;3.08;2.13;;;10.10;99.90;;;;;;5077300;28;20397;-68
2022/03/31 10:17:01;;;;;;;7.55;4.15;;;10.30;99.90;;;;;;5077340;28;20082;-68
2022/03/31 10:19:41;;;;;;;2.63;2.20;;;10.70;99.90;;;;;;5077514;28;20032;-67
2022/03/31 10:24:58;;;;;;;3.22;1.67;;;10.30;99.90;;;;;;5076581;28;20075;-67
2022/03/31 10:27:27;;;;;;;3.35;1.83;;;10.20;99.90;;;;;;5077244;28;20043;-67
2022/03/31 10:29:53;;;;;;;1.90;1.80;;;10.20;99.90;;;;;;5077264;28;20044;-67
2022/03/31 10:32:24;;;;;;;2.30;2.10;;;10.00;99.90;;;;;;5077121;28;20094;-67
2022/03/31 10:34:51;;;;;;;3.30;2.08;;;9.60;99.90;;;;;;5077066;28;20041;-67
2022/03/31 10:37:36;;;;;;;3.00;2.35;;;9.60;99.90;;;;;;5076823;28;20338;-66
2022/03/31 10:40:09;;;;;;;2.25;2.00;;;9.80;99.90;;;;;;5075958;28;20116;-67
2022/03/31 10:42:36;;;;;;;6.45;2.47;;;9.90;99.90;;;;;;5076170;28;20378;-66
2022/03/31 10:45:13;;;;;;;3.45;2.38;;;10.00;99.90;;;;;;5076232;28;20048;-68
2022/03/31 10:47:41;;;;;;;2.45;2.10;;;10.10;99.90;;;;;;5076245;28;20319;-67
2022/03/31 10:50:11;;;;;;;4.28;2.60;;;10.00;99.90;;;;;;5075901;28;20446;-66
2022/03/31 10:52:37;;;;;;;3.30;2.50;;;9.70;99.90;;;;;;5076823;28;20032;-67
2022/03/31 10:55:14;;;;;;;2.35;2.15;;;9.60;99.90;;;;;;5076884;28;20461;-67
2022/03/31 10:57:45;;;;;;;6.10;2.45;;;9.70;99.90;;;;;;5076765;28;20041;-67
2022/03/31 11:00:14;;;;;;;3.28;2.17;;;10.00;99.90;;;;;;5076793;28;20025;-67
2022/03/31 11:02:43;;;;;;;2.88;2.20;;;10.20;99.90;;;;;;5076723;28;20102;-67
2022/03/31 11:05:10;;;;;;;3.90;2.60;;;10.50;99.90;;;;;;5076675;28;20055;-67
2022/03/31 11:07:36;;;;;;;3.75;2.22;;;10.70;99.90;;;;;;5076669;28;20064;-66
2022/03/31 11:10:11;;;;;;;3.05;2.60;;;10.60;99.90;;;;;;5076152;28;20029;-67
2022/03/31 11:12:38;;;;;;;2.53;2.08;;;10.40;99.90;;;;;;5075843;28;20420;-66
2022/03/31 11:15:17;;;;;;;2.67;2.30;;;10.10;99.90;;;;;;5075981;28;20064;-67
2022/03/31 11:17:43;;;;;;;3.38;2.50;;;10.10;99.90;;;;;;5076729;28;20028;-67
2022/03/31 11:20:21;;;;;;;2.50;2.25;;;9.80;99.90;;;;;;5076739;28;20437;-65
2022/03/31 11:22:54;;;;;;;4.65;3.08;;;9.70;99.90;;;;;;5075882;28;20036;-67
2022/03/31 11:25:21;;;;;;;3.47;2.50;;;9.60;99.90;;;;;;5077206;28;20029;-67
2022/03/31 11:27:48;;;;;;;3.58;2.50;;;9.50;99.90;;;;;;5076535;28;20036;-65
2022/03/31 11:30:20;;;;;;;2.67;2.38;;;9.50;99.90;;;;;;5076449;28;20407;-66
2022/03/31 11:32:50;;;;;;;5.45;2.70;;;9.40;99.90;;;;;;5076590;28;20063;-67
2022/03/31 11:35:18;;;;;;;4.82;2.20;;;9.60;99.90;;;;;;5060445;28;20028;-68
2022/03/31 11:37:52;;;;;;;2.72;2.00;;;10.00;99.90;;;;;;5075785;28;20028;-66
2022/03/31 11:40:33;;;;;;;2.88;1.63;;;10.40;99.90;;;;;;5075635;28;20207;-66
2022/03/31 11:43:02;;;;;;;2.25;1.88;;;10.70;99.90;;;;;;5076764;28;20044;-67
2022/03/31 11:45:37;;;;;;;2.95;1.88;;;11.10;99.90;;;;;;5075747;28;20137;-67
2022/03/31 11:48:07;;;;;;;6.80;2.20;;;11.50;99.90;;;;;;5076848;28;20051;-67
2022/03/31 11:50:35;;;;;;;2.10;1.90;;;11.90;99.90;;;;;;5076447;28;20024;-69
2022/03/31 11:53:03;;;;;;;2.40;2.10;;;12.50;99.90;;;;;;5076699;28;20056;-66
2022/03/31 11:55:30;;;;;;;5.25;2.33;;;12.80;99.90;;;;;;5058944;28;20029;-66
2022/03/31 11:58:04;;;;;;;2.92;1.85;;;12.80;99.90;;;;;;5076222;28;20037;-66
2022/03/31 12:00:31;;;;;;;3.53;2.50;;;12.40;99.90;;;;;;5076116;28;20300;-65
2022/03/31 12:02:59;;;;;;;2.67;2.22;;;12.00;99.90;;;;;;5079568;28;20033;-66
2022/03/31 12:05:25;;;;;;;3.63;2.00;;;11.70;99.90;;;;;;5080630;28;20043;-66
2022/03/31 12:07:52;;;;;;;2.88;1.90;;;11.50;99.90;;;;;;5079307;28;20033;-66
2022/03/31 12:10:19;;;;;;;2.92;1.88;;;11.70;99.90;;;;;;5079880;28;20039;-66
2022/03/31 12:12:47;;;;;;;2.08;1.92;;;11.80;99.90;;;;;;5079868;28;20308;-66
2022/03/31 12:15:22;;;;;;;3.03;1.90;;;12.20;99.90;;;;;;5079847;28;20407;-66
2022/03/31 12:18:03;;;;;;;2.22;2.03;;;12.70;99.90;;;;;;5079735;28;20314;-66
2022/03/31 12:20:30;;;;;;;2.50;2.20;;;13.00;99.90;;;;;;5079768;28;20384;-66
2022/03/31 12:22:56;;;;;;;2.50;1.85;;;13.20;99.90;;;;;;5079000;28;20021;-66
2022/03/31 12:25:33;;;;;;;2.28;2.00;;;13.20;99.90;;;;;;5079736;28;20123;-66
2022/03/31 12:28:05;;;;;;;2.88;2.20;;;13.10;99.90;;;;;;5079729;28;20078;-67
2022/03/31 12:30:47;;;;;;;2.67;2.47;;;12.90;99.90;;;;;;5078802;28;20036;-66
2022/03/31 12:33:22;;;;;;;2.30;2.10;;;12.80;99.90;;;;;;5079664;28;20036;-66
2022/03/31 12:35:57;;;;;;;2.45;2.28;;;12.50;99.90;;;;;;5079543;28;20032;-66
2022/03/31 12:38:49;;;;;;;3.40;3.10;;;12.30;99.90;;;;;;5079358;28;20025;-67
2022/03/31 12:41:24;;;;;;;3.42;3.13;;;12.10;99.90;;;;;;5079393;28;20086;-67
2022/03/31 12:44:16;;;;;;;3.90;3.20;;;12.20;99.90;;;;;;5079332;28;20029;-67
2022/03/31 12:46:57;;;;;;;4.57;4.10;;;12.20;99.90;;;;;;5079008;28;20127;-67
2022/03/31 12:49:25;;;;;;;5.30;3.40;;;12.30;99.90;;;;;;5079850;28;20071;-67
2022/03/31 12:51:52;;;;;;;4.25;3.85;;;12.50;99.90;;;;;;5079559;28;20270;-67
2022/03/31 12:54:36;;;;;;;8.48;4.30;;;12.50;99.90;;;;;;5079103;28;20070;-65
2022/03/31 12:57:06;;;;;;;5.10;4.80;;;12.60;99.90;;;;;;5079290;28;20025;-67
2022/03/31 12:59:36;;;;;;;6.25;5.63;;;12.50;99.90;;;;;;5078379;28;20051;-66
2022/03/31 13:02:08;;;;;;;6.05;5.60;;;12.30;99.90;;;;;;5079008;28;20024;-67
2022/03/31 13:04:42;;;;;;;6.30;5.75;;;12.00;99.90;;;;;;5078969;28;20343;-66